Time;durP1;ratioP1;P1;durP2;ratioP2;P2;SDS_P1;SDS_P2;PMS_P1;PMS_P2;Temp;Humidity;BMP_temperature;BMP_pressure;BME280_temperature;BME280_humidity;BME280_pressure;Samples;Min_cycle;Max_cycle;Signal;HPM_P1;HPM_P2
2021/04/20 00:00:13;;;;;;;25.30;12.67;;;;;;;10.46;66.14;99957.06;125602;1099;104217;-74
2021/04/20 00:03:03;;;;;;;25.13;12.53;;;;;;;10.49;66.49;99961.52;125629;1099;104242;-74
2021/04/20 00:05:32;;;;;;;24.20;12.83;;;;;;;10.47;66.37;99956.22;125655;1099;104248;-74
2021/04/20 00:08:00;;;;;;;25.63;13.77;;;;;;;10.45;66.50;99962.27;125613;1099;104197;-74
2021/04/20 00:10:29;;;;;;;27.13;13.20;;;;;;;10.43;66.50;99957.85;125658;1099;104194;-74
2021/04/20 00:12:58;;;;;;;22.43;11.97;;;;;;;10.39;66.70;99953.39;125626;1099;104296;-74
2021/04/20 00:15:29;;;;;;;27.40;14.10;;;;;;;10.33;66.61;99947.97;125682;1099;104373;-74
2021/04/20 00:18:00;;;;;;;24.63;12.87;;;;;;;10.32;66.48;99940.91;125644;1099;104175;-73
2021/04/20 00:20:29;;;;;;;25.60;13.53;;;;;;;10.35;66.32;99940.16;125657;1099;104169;-74
2021/04/20 00:22:58;;;;;;;25.33;12.93;;;;;;;10.36;66.90;99940.19;125626;1099;104341;-74
2021/04/20 00:25:26;;;;;;;23.73;12.70;;;;;;;10.38;66.37;99941.11;125631;1099;104178;-73
2021/04/20 00:27:55;;;;;;;24.80;12.13;;;;;;;10.37;66.70;99934.08;125643;1100;104165;-74
2021/04/20 00:30:25;;;;;;;26.60;13.87;;;;;;;10.35;66.62;99927.91;125688;1098;104200;-74
2021/04/20 00:32:53;;;;;;;24.30;13.43;;;;;;;10.33;66.54;99924.37;125648;1099;104264;-74
2021/04/20 00:35:22;;;;;;;25.30;13.27;;;;;;;10.31;67.05;99930.38;125602;1099;104320;-74
2021/04/20 00:37:51;;;;;;;26.20;13.17;;;;;;;10.29;66.55;99922.47;125689;1099;104200;-74
2021/04/20 00:40:20;;;;;;;26.47;13.53;;;;;;;10.28;66.92;99923.30;125640;1099;104290;-74
2021/04/20 00:42:51;;;;;;;24.93;12.53;;;;;;;10.28;67.34;99920.68;125670;1099;104300;-74
2021/04/20 00:45:23;;;;;;;24.37;13.27;;;;;;;10.26;66.59;99917.13;125624;1099;104410;-74
2021/04/20 00:47:52;;;;;;;24.93;12.87;;;;;;;10.28;66.90;99923.30;125592;1099;104309;-74
2021/04/20 00:50:25;;;;;;;25.73;13.87;;;;;;;10.25;67.06;99915.34;125656;1099;104299;-74
2021/04/20 00:52:54;;;;;;;27.43;13.63;;;;;;;10.23;66.65;99909.19;125658;1099;104175;-74
2021/04/20 00:55:24;;;;;;;25.53;13.60;;;;;;;10.24;66.64;99911.84;125663;1099;104162;-74
2021/04/20 00:57:53;;;;;;;25.80;13.13;;;;;;;10.24;66.84;99913.59;125698;1099;104266;-73
2021/04/20 01:00:25;;;;;;;24.90;12.70;;;;;;;10.23;66.87;99904.81;125585;1099;104031;-73
2021/04/20 01:02:55;;;;;;;28.83;13.60;;;;;;;10.22;66.77;99903.06;125651;1099;104224;-74
2021/04/20 01:05:28;;;;;;;25.90;13.17;;;;;;;10.23;66.86;99903.94;125605;1099;104181;-74
2021/04/20 01:08:00;;;;;;;25.80;13.43;;;;;;;10.20;67.18;99907.36;125625;1099;104358;-74
2021/04/20 01:10:30;;;;;;;26.67;14.20;;;;;;;10.18;67.36;99909.05;125598;1099;104285;-74
2021/04/20 01:13:00;;;;;;;23.53;13.00;;;;;;;10.19;67.58;99909.94;125641;1099;104296;-74
2021/04/20 01:15:31;;;;;;;25.07;13.27;;;;;;;10.20;67.58;99906.48;125642;1099;104300;-74
2021/04/20 01:18:10;;;;;;;26.47;13.70;;;;;;;10.24;67.09;99905.73;125670;1099;110817;-74
2021/04/20 01:20:42;;;;;;;25.10;12.93;;;;;;;10.26;67.19;99904.91;125689;1099;104299;-74
2021/04/20 01:23:14;;;;;;;25.97;12.43;;;;;;;10.31;67.56;99902.41;125651;1099;104242;-74
2021/04/20 01:25:43;;;;;;;23.43;12.07;;;;;;;10.34;67.03;99905.14;125612;1099;104332;-74
2021/04/20 01:28:12;;;;;;;25.47;12.83;;;;;;;10.37;67.03;99905.23;125656;1099;104329;-74
2021/04/20 01:30:41;;;;;;;24.30;12.30;;;;;;;10.37;67.21;99902.61;125661;1096;104165;-74
2021/04/20 01:33:10;;;;;;;25.60;13.00;;;;;;;10.32;67.31;99893.70;125673;1099;104187;-74
2021/04/20 01:35:39;;;;;;;26.80;13.80;;;;;;;10.28;67.06;99890.95;125667;1099;104416;-74
2021/04/20 01:38:08;;;;;;;25.70;13.13;;;;;;;10.22;67.38;99889.95;125616;1099;104197;-74
2021/04/20 01:40:37;;;;;;;26.40;13.13;;;;;;;10.21;67.06;99889.91;125635;1099;104166;-74
2021/04/20 01:43:06;;;;;;;23.23;11.97;;;;;;;10.21;67.49;99884.67;125648;1098;104290;-74
2021/04/20 01:45:34;;;;;;;24.50;12.27;;;;;;;10.21;67.17;99875.06;125665;1099;104242;-74
2021/04/20 01:48:04;;;;;;;24.53;13.03;;;;;;;10.23;67.56;99878.59;125618;1099;104168;-73
2021/04/20 01:50:33;;;;;;;24.80;12.87;;;;;;;10.22;67.22;99876.84;125632;1098;104169;-74
2021/04/20 01:53:02;;;;;;;27.47;13.40;;;;;;;10.21;67.30;99874.18;125606;1099;104160;-74
2021/04/20 01:55:30;;;;;;;24.70;12.67;;;;;;;10.19;67.25;99866.27;125654;1099;104223;-74
2021/04/20 01:58:00;;;;;;;23.30;12.03;;;;;;;10.18;67.74;99868.85;125659;1099;104184;-73
2021/04/20 02:00:30;;;;;;;25.30;13.07;;;;;;;10.15;67.46;99864.41;125665;1099;104166;-74
2021/04/20 02:02:59;;;;;;;25.80;13.00;;;;;;;10.12;67.32;99866.06;125636;1098;104162;-74
2021/04/20 02:05:28;;;;;;;25.60;13.37;;;;;;;10.09;67.31;99864.23;125677;1099;104203;-74
2021/04/20 02:08:00;;;;;;;25.10;12.50;;;;;;;10.07;67.35;99865.94;125640;1099;104159;-74
2021/04/20 02:10:30;;;;;;;24.53;13.23;;;;;;;10.04;67.93;99864.11;125653;1099;104300;-74
2021/04/20 02:12:59;;;;;;;25.37;12.83;;;;;;;10.05;68.08;99862.36;125639;1099;104162;-73
2021/04/20 02:15:28;;;;;;;26.97;13.33;;;;;;;10.07;67.47;99860.69;125677;1099;104758;-74
2021/04/20 02:17:57;;;;;;;23.63;12.87;;;;;;;10.04;67.55;99851.00;125620;1099;104197;-74
2021/04/20 02:20:29;;;;;;;25.03;13.90;;;;;;;10.03;67.97;99849.21;125627;1099;104236;-74
2021/04/20 02:22:59;;;;;;;26.90;14.00;;;;;;;10.01;68.21;99843.05;125643;1099;104179;-74
2021/04/20 02:25:29;;;;;;;29.03;14.00;;;;;;;10.00;68.22;99840.39;125656;1099;104270;-73
2021/04/20 02:27:59;;;;;;;26.60;13.13;;;;;;;10.01;67.65;99845.67;125630;1099;104179;-74
2021/04/20 02:30:31;;;;;;;29.60;14.57;;;;;;;10.01;68.20;99837.81;125653;1099;104184;-74
2021/04/20 02:33:00;;;;;;;26.67;13.43;;;;;;;10.02;68.31;99836.98;125673;1099;104545;-74
2021/04/20 02:35:31;;;;;;;24.20;12.73;;;;;;;10.06;68.27;99833.57;125673;1099;104230;-74
2021/04/20 02:38:00;;;;;;;27.17;13.93;;;;;;;10.08;68.34;99826.66;125656;1098;104165;-74
2021/04/20 02:40:33;;;;;;;26.07;13.87;;;;;;;10.07;67.85;99835.36;125663;1099;104354;-74
2021/04/20 02:43:03;;;;;;;29.00;14.70;;;;;;;10.03;68.47;99836.11;125633;1099;104163;-74
2021/04/20 02:45:34;;;;;;;26.10;13.97;;;;;;;9.99;68.36;99834.27;125656;1099;104172;-74
2021/04/20 02:48:06;;;;;;;24.67;13.73;;;;;;;9.96;68.26;99831.56;125652;1098;104179;-74
2021/04/20 02:50:36;;;;;;;28.10;14.27;;;;;;;9.94;68.10;99834.98;125617;1099;104427;-74
2021/04/20 02:53:05;;;;;;;26.67;13.07;;;;;;;9.93;68.61;99828.86;125645;1099;104315;-74
2021/04/20 02:55:34;;;;;;;26.77;14.07;;;;;;;9.90;68.62;99829.65;125638;1099;104291;-73
2021/04/20 02:58:04;;;;;;;29.43;14.13;;;;;;;9.89;68.46;99832.23;125624;1099;104654;-74
2021/04/20 03:00:36;;;;;;;28.40;13.90;;;;;;;9.89;68.13;99829.61;125678;1099;104173;-74
2021/04/20 03:03:06;;;;;;;28.10;13.60;;;;;;;9.90;68.59;99834.89;125638;1099;104296;-74
2021/04/20 03:05:35;;;;;;;23.83;12.43;;;;;;;9.89;68.50;99835.76;125701;1097;104171;-74
2021/04/20 03:08:06;;;;;;;26.17;12.77;;;;;;;9.87;68.54;99840.05;125651;1099;104194;-74
2021/04/20 03:10:37;;;;;;;27.63;14.23;;;;;;;9.86;68.17;99837.38;125634;1099;104168;-74
2021/04/20 03:13:06;;;;;;;26.63;13.63;;;;;;;9.83;68.75;99834.67;125672;1099;104207;-74
2021/04/20 03:15:36;;;;;;;29.70;14.27;;;;;;;9.81;68.50;99836.38;125611;1099;104297;-75
2021/04/20 03:18:07;;;;;;;32.37;14.63;;;;;;;9.78;68.88;99838.91;125596;1099;104172;-75
2021/04/20 03:20:42;;;;;;;30.57;14.37;;;;;;;9.75;68.82;99839.70;125608;1099;104191;-75
2021/04/20 03:23:11;;;;;;;28.27;13.93;;;;;;;9.71;68.83;99837.86;125647;1099;104303;-75
2021/04/20 03:25:41;;;;;;;27.57;14.23;;;;;;;9.66;68.89;99837.73;125669;1099;104598;-75
2021/04/20 03:28:10;;;;;;;27.43;14.60;;;;;;;9.61;68.96;99834.06;125626;1099;104300;-75
2021/04/20 03:30:39;;;;;;;28.20;14.23;;;;;;;9.58;68.83;99831.36;125607;1099;107199;-75
2021/04/20 03:33:14;;;;;;;33.17;15.00;;;;;;;9.58;68.52;99839.21;125666;1099;104297;-75
2021/04/20 03:35:58;;;;;;;32.90;15.27;;;;;;;9.55;69.07;99839.13;125608;1099;105510;-75
2021/04/20 03:38:33;;;;;;;30.72;14.38;;;;;;;9.52;68.84;99839.94;125636;1098;104233;-76
2021/04/20 03:41:08;;;;;;;33.07;14.20;;;;;;;9.53;69.24;99840.82;125664;1099;105841;-75
2021/04/20 03:43:41;;;;;;;30.20;14.83;;;;;;;9.51;69.38;99852.99;125601;1099;104325;-75
2021/04/20 03:46:14;;;;;;;31.07;14.30;;;;;;;9.50;69.45;99851.20;125643;1099;104617;-75
2021/04/20 03:48:46;;;;;;;33.08;15.28;;;;;;;9.49;69.00;99844.18;125573;1099;104207;-75
2021/04/20 03:51:18;;;;;;;32.27;15.33;;;;;;;9.50;68.97;99843.34;125614;1099;104149;-75
2021/04/20 03:53:51;;;;;;;30.93;15.27;;;;;;;9.53;69.08;99848.68;125630;1099;104285;-75
2021/04/20 03:56:25;;;;;;;29.83;14.63;;;;;;;9.58;69.37;99840.95;125595;1099;104395;-75
2021/04/20 03:58:56;;;;;;;31.77;15.50;;;;;;;9.59;69.32;99845.36;125611;1099;104248;-75
2021/04/20 04:01:25;;;;;;;34.00;16.90;;;;;;;9.61;68.91;99843.66;125658;1099;105783;-75
2021/04/20 04:03:56;;;;;;;34.27;16.40;;;;;;;9.66;69.06;99844.67;125684;1099;104190;-76
2021/04/20 04:06:26;;;;;;;35.40;16.55;;;;;;;9.68;69.30;99843.02;125641;1099;104165;-75
2021/04/20 04:08:55;;;;;;;31.57;15.73;;;;;;;9.69;69.46;99839.52;125539;1099;104322;-76
2021/04/20 04:11:25;;;;;;;32.63;16.07;;;;;;;9.71;68.98;99845.72;125616;1099;104204;-75
2021/04/20 04:13:54;;;;;;;33.87;15.57;;;;;;;9.71;69.30;99851.84;125630;1099;104182;-75
2021/04/20 04:16:24;;;;;;;32.87;15.03;;;;;;;9.73;69.14;99835.28;125672;1099;104227;-76
2021/04/20 04:19:00;;;;;;;33.77;14.97;;;;;;;9.74;69.81;99844.90;125638;1099;104200;-76
2021/04/20 04:21:40;;;;;;;34.53;15.90;;;;;;;9.76;69.19;99843.23;125616;1099;108174;-75
2021/04/20 04:24:12;;;;;;;31.07;15.17;;;;;;;9.80;69.80;99838.12;125564;1098;104168;-75
2021/04/20 04:26:50;;;;;;;34.57;15.57;;;;;;;9.83;69.77;99840.83;125649;1099;104297;-75
2021/04/20 04:29:21;;;;;;;32.17;14.20;;;;;;;9.88;69.73;99838.34;125679;1099;104188;-76
2021/04/20 04:31:51;;;;;;;32.63;15.27;;;;;;;9.93;69.75;99841.96;125651;1099;104250;-76
2021/04/20 04:34:21;;;;;;;33.27;15.30;;;;;;;9.98;69.58;99832.48;125664;1099;104296;-75
2021/04/20 04:36:50;;;;;;;29.50;14.00;;;;;;;10.05;69.62;99833.53;125651;1099;104296;-75
2021/04/20 04:39:19;;;;;;;30.37;14.33;;;;;;;10.13;69.73;99831.11;125698;1098;104294;-76
2021/04/20 04:41:49;;;;;;;33.80;14.90;;;;;;;10.17;69.31;99825.99;125692;1099;104171;-76
2021/04/20 04:44:18;;;;;;;30.50;14.25;;;;;;;10.22;69.73;99840.14;125635;1099;105446;-75
2021/04/20 04:46:47;;;;;;;30.93;15.20;;;;;;;10.25;69.56;99841.93;125605;1097;104294;-76
2021/04/20 04:49:17;;;;;;;30.93;14.47;;;;;;;10.27;69.12;99832.39;125612;1099;104166;-76
2021/04/20 04:51:49;;;;;;;30.53;13.90;;;;;;;10.29;69.48;99835.05;125621;1099;104242;-76
2021/04/20 04:54:19;;;;;;;27.60;12.50;;;;;;;10.33;68.67;99836.92;125667;1099;104168;-75
2021/04/20 04:56:49;;;;;;;28.70;14.20;;;;;;;10.39;69.20;99835.37;125661;1099;104417;-75
2021/04/20 04:59:22;;;;;;;30.97;13.30;;;;;;;10.48;68.92;99837.31;125612;1098;104168;-76
2021/04/20 05:01:52;;;;;;;27.87;14.07;;;;;;;10.56;68.69;99837.52;125635;1099;104258;-76
2021/04/20 05:04:24;;;;;;;27.13;13.23;;;;;;;10.68;68.73;99839.56;125615;1099;104201;-76
2021/04/20 05:06:53;;;;;;;28.53;13.67;;;;;;;10.80;68.55;99832.00;125633;1099;104178;-75
2021/04/20 05:09:23;;;;;;;29.83;13.07;;;;;;;10.90;68.36;99835.72;125649;1099;104172;-76
2021/04/20 05:11:53;;;;;;;26.13;13.47;;;;;;;11.00;68.91;99835.09;125563;1099;104218;-76
2021/04/20 05:14:23;;;;;;;27.53;13.67;;;;;;;11.15;68.36;99838.05;125624;1099;104185;-77
2021/04/20 05:16:53;;;;;;;28.20;13.60;;;;;;;11.27;68.39;99831.31;125614;1099;104299;-75
2021/04/20 05:19:27;;;;;;;27.83;12.47;;;;;;;11.39;68.24;99839.47;125584;1099;104294;-76
2021/04/20 05:22:00;;;;;;;27.67;13.58;;;;;;;11.51;68.36;99830.94;125601;1099;104230;-77
2021/04/20 05:24:30;;;;;;;26.33;12.33;;;;;;;11.61;67.67;99827.67;125520;1099;104200;-77
2021/04/20 05:26:59;;;;;;;27.17;12.57;;;;;;;11.71;67.37;99827.86;125560;1099;104184;-76
2021/04/20 05:29:30;;;;;;;26.13;12.37;;;;;;;11.84;67.63;99825.50;125529;1099;104169;-76
2021/04/20 05:32:00;;;;;;;23.73;11.77;;;;;;;11.99;67.59;99821.42;124932;1099;104288;-76
2021/04/20 05:34:29;;;;;;;25.47;12.73;;;;;;;12.07;67.49;99822.45;125525;1099;104227;-77
2021/04/20 05:36:58;;;;;;;24.00;11.70;;;;;;;12.17;67.12;99815.61;124958;1099;104342;-76
2021/04/20 05:39:27;;;;;;;25.73;11.70;;;;;;;12.23;67.13;99819.26;125497;1099;104183;-77
2021/04/20 05:41:56;;;;;;;26.10;12.10;;;;;;;12.27;66.88;99819.31;125439;1099;104206;-76
2021/04/20 05:44:25;;;;;;;27.10;12.50;;;;;;;12.35;67.14;99822.95;125564;1099;104238;-77
2021/04/20 05:46:53;;;;;;;26.77;12.00;;;;;;;12.42;66.86;99819.58;125047;1099;104294;-77
2021/04/20 05:49:22;;;;;;;24.97;12.03;;;;;;;12.46;66.81;99821.39;125497;1099;104187;-77
2021/04/20 05:51:51;;;;;;;22.13;10.87;;;;;;;12.52;66.26;99824.13;125481;1099;105726;-77
2021/04/20 05:54:20;;;;;;;22.30;10.97;;;;;;;12.57;66.07;99825.11;125053;1102;104331;-76
2021/04/20 05:56:51;;;;;;;22.23;10.63;;;;;;;12.66;66.22;99816.45;125023;1099;104357;-77
2021/04/20 05:59:20;;;;;;;21.90;11.00;;;;;;;12.76;65.71;99814.85;125066;1099;104444;-78
2021/04/20 06:01:53;;;;;;;22.00;9.83;;;;;;;12.86;65.95;99814.15;125475;1099;104335;-79
2021/04/20 06:04:22;;;;;;;27.50;10.40;;;;;;;12.97;64.94;99816.95;125604;1099;104176;-79
2021/04/20 06:06:51;;;;;;;19.77;9.13;;;;;;;13.00;64.36;99821.39;125614;1099;104159;-78
2021/04/20 06:09:20;;;;;;;19.43;9.27;;;;;;;13.03;63.96;99816.16;125588;1098;104163;-78
2021/04/20 06:11:52;;;;;;;20.93;9.47;;;;;;;13.12;65.22;99821.56;125604;1099;104208;-79
2021/04/20 06:14:21;;;;;;;17.67;8.70;;;;;;;13.30;65.15;99816.53;125567;1099;104341;-78
2021/04/20 06:16:50;;;;;;;17.03;8.10;;;;;;;13.44;64.48;99823.78;125612;1099;104185;-81
2021/04/20 06:19:19;;;;;;;18.30;8.87;;;;;;;13.54;64.61;99823.05;125512;1099;104162;-79
2021/04/20 06:21:49;;;;;;;19.20;8.80;;;;;;;13.65;63.68;99817.91;125548;1098;104736;-79
2021/04/20 06:24:18;;;;;;;17.30;8.13;;;;;;;13.70;61.94;99826.75;125523;1099;104268;-80
2021/04/20 06:26:48;;;;;;;17.83;8.60;;;;;;;13.70;61.36;99821.48;125615;1099;104527;-78
2021/04/20 06:29:19;;;;;;;15.93;7.67;;;;;;;13.71;62.39;99823.23;125618;1099;104141;-78
2021/04/20 06:31:50;;;;;;;16.50;8.27;;;;;;;13.64;60.00;99822.28;125542;1097;105418;-77
2021/04/20 06:34:18;;;;;;;17.00;7.80;;;;;;;13.65;60.49;99820.55;125627;1099;106889;-78
2021/04/20 06:36:48;;;;;;;14.53;7.17;;;;;;;13.75;60.88;99826.81;125598;1099;104188;-77
2021/04/20 06:39:17;;;;;;;18.27;8.77;;;;;;;13.86;61.72;99808.48;125624;1099;104197;-76
2021/04/20 06:41:53;;;;;;;17.43;7.83;;;;;;;14.09;61.80;99816.64;125614;1098;104294;-78
2021/04/20 06:44:47;;;;;;;16.97;7.63;;;;;;;14.26;60.04;99814.14;125580;1099;112994;-79
2021/04/20 06:47:18;;;;;;;18.50;7.87;;;;;;;14.28;59.49;99817.70;125851;1099;104159;-81
2021/04/20 06:49:57;;;;;;;14.97;7.73;;;;;;;14.25;59.05;99821.19;125598;1099;104648;-83
2021/04/20 06:52:32;;;;;;;15.07;7.57;;;;;;;14.23;60.37;99809.75;125521;1099;104002;-79
2021/04/20 06:55:07;;;;;;;14.57;7.00;;;;;;;14.34;59.71;99823.92;125610;1098;104211;-79
2021/04/20 06:57:44;;;;;;;16.93;8.23;;;;;;;14.37;60.21;99821.31;125485;1098;104214;-80
2021/04/20 07:00:18;;;;;;;16.63;7.60;;;;;;;14.35;60.45;99819.52;125562;1099;104242;-80
2021/04/20 07:02:56;;;;;;;16.30;7.20;;;;;;;14.37;59.54;99826.59;125551;1099;104236;-79
2021/04/20 07:05:32;;;;;;;16.60;8.10;;;;;;;14.41;59.13;99822.21;125559;1099;104143;-77
2021/04/20 07:08:16;;;;;;;14.43;7.20;;;;;;;14.54;59.36;99829.38;125523;1099;104318;-78
2021/04/20 07:10:53;;;;;;;15.50;8.10;;;;;;;14.62;58.21;99824.20;125576;1099;104303;-79
2021/04/20 07:13:26;;;;;;;14.33;6.70;;;;;;;14.74;57.65;99829.59;125508;1099;102280;-78
2021/04/20 07:15:57;;;;;;;13.70;6.77;;;;;;;14.78;57.49;99821.69;125607;1099;104201;-79
2021/04/20 07:18:58;;;;;;;19.33;7.87;;;;;;;14.94;58.89;99831.48;125597;1099;104175;-80
2021/04/20 07:24:28;;;;;;;14.97;7.87;;;;;;;15.28;57.55;99829.06;124950;1102;104297;-77
2021/04/20 07:27:19;;;;;;;14.47;6.77;;;;;;;15.21;56.20;99828.15;124879;1102;104300;-78
2021/04/20 07:30:07;;;;;;;13.73;7.20;;;;;;;15.25;55.96;99821.11;124821;1102;104178;-77
2021/04/20 07:33:03;;;;;;;15.40;6.80;;;;;;;15.24;55.19;99828.17;125593;1099;104264;-78
2021/04/20 07:35:43;;;;;;;16.60;7.07;;;;;;;15.30;55.87;99826.43;125601;1099;109578;-77
2021/04/20 07:38:21;;;;;;;14.60;7.43;;;;;;;15.24;54.55;99828.17;125546;1099;104293;-76
2021/04/20 07:41:11;;;;;;;16.27;8.20;;;;;;;15.35;56.44;99836.16;125528;1099;104245;-77
2021/04/20 07:44:03;;;;;;;16.87;7.90;;;;;;;15.46;56.19;99829.16;124862;1099;104325;-75
2021/04/20 07:46:39;;;;;;;16.03;7.97;;;;;;;15.46;56.00;99815.07;124928;1099;104227;-75
2021/04/20 07:49:16;;;;;;;13.83;6.90;;;;;;;15.43;55.45;99818.58;124923;1099;104184;-77
2021/04/20 07:51:54;;;;;;;16.20;7.33;;;;;;;15.43;53.58;99817.70;124938;1099;104188;-78
2021/04/20 07:54:38;;;;;;;11.73;6.13;;;;;;;15.56;53.11;99814.22;124872;1099;104227;-76
2021/04/20 07:57:16;;;;;;;12.10;6.80;;;;;;;15.66;50.79;99822.19;124930;1102;104178;-76
2021/04/20 07:59:57;;;;;;;15.00;6.43;;;;;;;15.77;53.84;99818.76;124977;1099;104341;-76
2021/04/20 08:02:36;;;;;;;14.50;6.60;;;;;;;15.89;51.86;99804.67;124872;1099;104242;-75
2021/04/20 08:05:16;;;;;;;17.37;7.00;;;;;;;16.07;54.38;99806.49;124890;1102;104185;-76
2021/04/20 08:07:55;;;;;;;11.20;5.63;;;;;;;16.45;53.25;99810.08;124941;1099;104216;-77
2021/04/20 08:10:31;;;;;;;11.47;6.47;;;;;;;16.61;52.75;99808.30;124977;1102;104337;-76
2021/04/20 08:13:04;;;;;;;13.87;5.77;;;;;;;16.71;52.64;99812.73;124924;1099;104341;-76
2021/04/20 08:15:36;;;;;;;;;;;;;;;16.69;52.44;99810.08;125351;1098;104168;-78
2021/04/20 08:18:14;;;;;;;14.40;6.85;;;;;;;16.60;52.36;99810.08;125663;1099;104768;-78
2021/04/20 08:20:47;;;;;;;11.27;5.93;;;;;;;16.65;53.52;99815.38;125647;1099;104173;-77
2021/04/20 08:23:18;;;;;;;18.67;7.20;;;;;;;16.54;52.37;99810.95;125668;1099;104168;-77
2021/04/20 08:25:55;;;;;;;10.77;5.90;;;;;;;16.40;52.59;99812.72;125568;1099;104233;-77
2021/04/20 08:28:33;;;;;;;15.83;6.83;;;;;;;16.20;51.30;99803.87;125606;1099;104326;-79
2021/04/20 08:31:07;;;;;;;11.83;5.97;;;;;;;16.13;52.52;99811.80;125528;1099;104185;-77
2021/04/20 08:33:41;;;;;;;17.13;7.47;;;;;;;16.00;52.15;99807.34;125637;1099;104172;-76
2021/04/20 08:36:27;;;;;;;15.83;7.22;;;;;;;15.88;51.41;99813.50;125609;1099;104168;-78
2021/04/20 08:39:04;;;;;;;16.53;7.50;;;;;;;15.71;51.90;99816.05;125657;1099;104340;-76
2021/04/20 08:41:44;;;;;;;12.77;7.00;;;;;;;15.59;52.51;99816.00;125624;1099;104169;-77
2021/04/20 08:44:22;;;;;;;13.90;6.33;;;;;;;15.48;51.88;99823.88;125595;1099;104226;-76
2021/04/20 08:46:59;;;;;;;13.23;6.87;;;;;;;15.38;51.21;99819.41;125535;1099;104300;-79
2021/04/20 08:49:44;;;;;;;12.70;6.17;;;;;;;15.43;52.42;99815.05;125609;1099;104245;-77
2021/04/20 08:52:30;;;;;;;13.43;6.40;;;;;;;15.36;51.95;99814.12;125018;1099;104358;-78
2021/04/20 08:55:14;;;;;;;12.57;6.90;;;;;;;15.35;51.97;99801.80;125563;1099;104463;-76
2021/04/20 08:57:58;;;;;;;14.15;6.40;;;;;;;15.51;50.47;99805.39;125578;1099;104297;-78
2021/04/20 09:00:34;;;;;;;13.60;6.72;;;;;;;15.61;50.72;99806.30;125553;1098;104210;-76
2021/04/20 09:03:15;;;;;;;14.83;6.87;;;;;;;15.85;50.80;99802.01;125615;1099;104689;-76
2021/04/20 09:05:51;;;;;;;10.57;6.27;;;;;;;16.08;51.01;99786.20;125562;1099;104204;-76
2021/04/20 09:08:32;;;;;;;11.97;6.43;;;;;;;16.39;51.23;99789.75;125549;1099;105640;-76
2021/04/20 09:11:10;;;;;;;12.93;7.00;;;;;;;16.66;50.94;99794.19;125556;1099;104149;-77
2021/04/20 09:14:00;;;;;;;13.27;6.30;;;;;;;16.87;50.42;99787.13;125609;1099;104245;-77
2021/04/20 09:16:40;;;;;;;12.07;5.60;;;;;;;16.83;49.86;99796.83;125562;1099;104165;-76
2021/04/20 09:19:13;;;;;;;11.50;6.00;;;;;;;16.61;49.78;99789.77;125635;1099;104252;-78
2021/04/20 09:21:54;;;;;;;9.90;5.40;;;;;;;16.55;49.72;99790.67;125606;1099;104337;-77
2021/04/20 09:24:26;;;;;;;10.10;5.10;;;;;;;16.60;48.11;99790.67;125673;1099;104175;-76
2021/04/20 09:27:02;;;;;;;11.27;5.20;;;;;;;16.42;49.19;99784.46;125646;1098;104290;-77
2021/04/20 09:29:37;;;;;;;8.30;5.13;;;;;;;16.25;48.92;99788.87;125668;1099;104169;-78
2021/04/20 09:32:19;;;;;;;8.63;5.03;;;;;;;16.22;49.12;99786.22;125621;1099;104172;-77
2021/04/20 09:34:53;;;;;;;9.63;5.50;;;;;;;16.41;49.49;99787.11;124935;1099;104395;-78
2021/04/20 09:37:28;;;;;;;9.27;5.43;;;;;;;16.48;48.53;99784.47;125493;1099;104219;-79
2021/04/20 09:39:59;;;;;;;9.93;5.63;;;;;;;16.54;49.33;99784.47;125504;1099;104318;-79
2021/04/20 09:42:29;;;;;;;10.93;5.87;;;;;;;16.46;48.36;99780.95;125052;1099;104341;-77
2021/04/20 09:45:12;;;;;;;10.13;5.70;;;;;;;16.28;48.69;99781.84;125052;1099;104291;-76
2021/04/20 09:47:58;;;;;;;14.90;6.60;;;;;;;16.20;48.51;99778.28;124997;1099;104207;-76
2021/04/20 09:50:36;;;;;;;14.57;6.10;;;;;;;16.13;48.31;99793.27;125508;1098;104158;-77
2021/04/20 09:53:39;;;;;;;11.70;5.85;;;;;;;16.03;47.45;99791.48;125030;1099;104325;-77
2021/04/20 09:56:17;;;;;;;14.17;5.33;;;;;;;15.86;47.61;99788.78;124906;1100;104165;-77
2021/04/20 09:58:58;;;;;;;11.17;5.30;;;;;;;15.78;48.15;99782.59;125036;1099;104414;-78
2021/04/20 10:01:44;;;;;;;8.73;5.10;;;;;;;15.79;47.73;99789.67;125041;1099;104159;-77
2021/04/20 10:04:35;;;;;;;11.50;5.70;;;;;;;15.73;47.43;99782.55;125431;1099;104293;-77
2021/04/20 10:07:32;;;;;;;14.20;6.23;;;;;;;15.78;47.44;99790.53;125299;1099;104235;-79
2021/04/20 10:10:18;;;;;;;13.30;5.80;;;;;;;15.89;48.19;99790.56;125553;1099;106811;-79
2021/04/20 10:13:03;;;;;;;11.00;5.97;;;;;;;15.99;47.63;99797.66;125463;1099;104319;-77
2021/04/20 10:15:39;;;;;;;;;;;;;;;16.03;46.74;99788.83;125509;1099;104172;-78
2021/04/20 10:18:22;;;;;;;10.77;5.97;;;;;;;16.19;47.92;99781.83;125528;1099;104169;-78
2021/04/20 10:21:10;;;;;;;11.30;6.00;;;;;;;16.39;47.19;99788.88;125536;1097;104159;-78
2021/04/20 10:23:51;;;;;;;11.70;5.43;;;;;;;16.56;46.91;99784.47;125510;1099;104217;-78
2021/04/20 10:26:30;;;;;;;8.03;4.50;;;;;;;16.58;46.67;99793.31;125631;1099;104343;-77
2021/04/20 10:29:20;;;;;;;9.73;5.67;;;;;;;16.56;46.89;99788.89;125516;1099;104162;-77
2021/04/20 10:32:07;;;;;;;13.83;6.37;;;;;;;16.51;47.13;99787.11;125620;1099;104293;-78
2021/04/20 10:35:03;;;;;;;14.37;6.30;;;;;;;16.49;45.70;99791.54;125590;1099;104204;-76
2021/04/20 10:37:37;;;;;;;10.87;5.27;;;;;;;16.18;44.10;99796.80;125587;1099;104172;-77
2021/04/20 10:40:10;;;;;;;11.27;5.50;;;;;;;15.76;43.44;99837.23;125644;1099;104175;-77
2021/04/20 10:43:05;;;;;;;12.33;5.37;;;;;;;15.36;46.08;99826.46;125595;1099;104332;-77
2021/04/20 10:45:36;;;;;;;10.33;5.30;;;;;;;15.28;46.20;99813.20;125679;1099;104297;-77
2021/04/20 10:48:07;;;;;;;7.70;4.33;;;;;;;15.31;45.23;99802.64;125642;1099;104168;-76
2021/04/20 10:50:54;;;;;;;10.97;5.27;;;;;;;15.44;46.32;99798.30;125639;1099;104155;-76
2021/04/20 10:53:26;;;;;;;10.43;5.10;;;;;;;15.64;46.25;99806.32;125617;1099;104194;-76
2021/04/20 10:56:02;;;;;;;9.75;4.50;;;;;;;15.79;46.52;99795.83;125603;1099;104338;-76
2021/04/20 10:58:32;;;;;;;10.73;5.53;;;;;;;15.97;45.41;99797.66;125589;1099;104213;-77
2021/04/20 11:01:02;;;;;;;11.53;6.10;;;;;;;16.10;45.78;99787.97;125553;1099;108125;-77
2021/04/20 11:03:35;;;;;;;12.75;6.35;;;;;;;16.22;46.11;99794.16;125528;1099;104933;-77
2021/04/20 11:06:12;;;;;;;13.30;5.13;;;;;;;16.41;45.96;99793.31;125675;1099;104264;-76
2021/04/20 11:08:46;;;;;;;10.10;5.53;;;;;;;16.62;46.11;99786.24;125571;1098;104190;-77
2021/04/20 11:11:20;;;;;;;11.60;5.60;;;;;;;16.87;45.31;99789.78;125630;1099;104184;-77
2021/04/20 11:13:51;;;;;;;13.90;5.60;;;;;;;17.04;46.00;99789.75;125653;1099;104594;-77
2021/04/20 11:16:26;;;;;;;12.80;5.73;;;;;;;17.17;45.74;99786.20;125703;1099;104235;-77
2021/04/20 11:19:03;;;;;;;14.77;6.33;;;;;;;17.32;45.66;99787.03;125519;1099;104284;-77
2021/04/20 11:21:38;;;;;;;14.00;6.70;;;;;;;17.42;45.68;99789.66;125577;1099;107783;-75
2021/04/20 11:24:21;;;;;;;16.77;6.37;;;;;;;17.71;45.45;99783.33;125698;1099;104165;-76
2021/04/20 11:26:58;;;;;;;10.45;5.75;;;;;;;17.85;45.40;99780.60;125555;1099;104176;-76
2021/04/20 11:29:42;;;;;;;12.63;6.27;;;;;;;17.95;45.47;99766.44;124850;1102;104185;-77
2021/04/20 11:32:34;;;;;;;11.67;6.10;;;;;;;18.03;45.42;99784.06;124868;1103;104220;-75
2021/04/20 11:35:13;;;;;;;11.47;6.00;;;;;;;17.95;45.09;99781.45;124829;1102;104296;-75
2021/04/20 11:38:03;;;;;;;11.00;6.23;;;;;;;17.73;44.52;99776.27;124951;1102;104168;-78
2021/04/20 11:40:42;;;;;;;12.10;5.47;;;;;;;17.56;44.82;99773.69;124890;1102;104423;-77